Time;durP1;ratioP1;P1;durP2;ratioP2;P2;SDS_P1;SDS_P2;PMS_P1;PMS_P2;Temp;Humidity;BMP_temperature;BMP_pressure;BME280_temperature;BME280_humidity;BME280_pressure;Samples;Min_cycle;Max_cycle;Signal;HPM_P1;HPM_P2
2024/01/14 00:02:07;;;;;;;10.57;10.27;;;-2.00;99.90;;;;;;6239125;23;20193;-81
2024/01/14 00:04:34;;;;;;;10.30;10.00;;;-2.00;99.90;;;;;;6234892;23;20221;-80
2024/01/14 00:07:01;;;;;;;10.10;9.80;;;-1.90;99.90;;;;;;6234581;23;20198;-80
2024/01/14 00:09:28;;;;;;;10.50;10.20;;;-2.00;99.90;;;;;;6232883;22;20206;-79
2024/01/14 00:11:56;;;;;;;10.40;10.10;;;-1.90;99.90;;;;;;6233922;23;20196;-79
2024/01/14 00:14:23;;;;;;;10.03;9.73;;;-1.90;99.90;;;;;;6234003;23;20210;-80
2024/01/14 00:16:50;;;;;;;10.27;9.97;;;-2.00;99.90;;;;;;6234548;23;20195;-80
2024/01/14 00:19:22;;;;;;;10.33;10.03;;;-2.00;99.90;;;;;;6239446;23;20194;-80
2024/01/14 00:21:49;;;;;;;10.30;10.00;;;-2.00;99.90;;;;;;6250164;22;20199;-79
2024/01/14 00:24:17;;;;;;;10.00;9.70;;;-1.90;99.90;;;;;;6247989;22;20187;-80
2024/01/14 00:26:44;;;;;;;10.63;10.33;;;-1.90;99.90;;;;;;6248719;22;20202;-80
2024/01/14 00:29:11;;;;;;;10.20;9.90;;;-1.90;99.90;;;;;;6247562;22;20203;-79
2024/01/14 00:31:38;;;;;;;10.47;10.17;;;-1.90;99.90;;;;;;6249693;22;20219;-79
2024/01/14 00:34:06;;;;;;;10.40;10.10;;;-1.90;99.90;;;;;;6250560;22;20186;-80
2024/01/14 00:36:39;;;;;;;10.53;10.23;;;-1.90;99.90;;;;;;6250611;22;20177;-79
2024/01/14 00:39:07;;;;;;;10.50;10.20;;;-1.90;99.90;;;;;;6250506;22;20181;-78
2024/01/14 00:41:34;;;;;;;10.50;10.20;;;-1.90;99.90;;;;;;6250367;22;20191;-79
2024/01/14 00:44:02;;;;;;;10.20;9.90;;;-1.90;99.90;;;;;;6250775;22;20222;-79
2024/01/14 00:46:31;;;;;;;10.70;10.40;;;-1.90;99.90;;;;;;6250592;22;20178;-79
2024/01/14 00:48:58;;;;;;;10.40;10.10;;;-1.90;99.90;;;;;;6250576;22;20182;-78
2024/01/14 00:51:25;;;;;;;10.33;10.03;;;-1.90;99.90;;;;;;6250270;22;20220;-79
2024/01/14 00:53:54;;;;;;;10.43;10.13;;;-1.90;99.90;;;;;;6250490;22;20184;-79
2024/01/14 00:56:21;;;;;;;10.13;9.83;;;-1.90;99.90;;;;;;6248184;22;20197;-80
2024/01/14 00:58:48;;;;;;;10.30;10.00;;;-1.90;99.90;;;;;;6250676;22;20226;-79
2024/01/14 01:01:15;;;;;;;10.70;10.40;;;-1.90;99.90;;;;;;6249864;22;20187;-80
2024/01/14 01:03:42;;;;;;;10.20;9.90;;;-1.90;99.90;;;;;;6250158;22;20177;-81
2024/01/14 01:06:10;;;;;;;10.27;9.97;;;-1.90;99.90;;;;;;6250043;22;20222;-80
2024/01/14 01:08:37;;;;;;;10.27;9.97;;;-2.00;99.90;;;;;;6247457;22;20224;-81
2024/01/14 01:11:06;;;;;;;10.73;10.43;;;-2.00;99.90;;;;;;6237520;22;20205;-81
2024/01/14 01:13:34;;;;;;;10.23;9.93;;;-2.00;99.90;;;;;;6237568;23;20206;-81
2024/01/14 01:16:01;;;;;;;10.20;9.90;;;-2.00;99.90;;;;;;6238363;23;20226;-81
2024/01/14 01:18:29;;;;;;;10.20;9.90;;;-2.00;99.90;;;;;;6237434;23;20223;-81
2024/01/14 01:20:56;;;;;;;10.60;10.30;;;-2.00;99.90;;;;;;6236962;22;20209;-81
2024/01/14 01:23:23;;;;;;;10.30;10.00;;;-1.90;99.90;;;;;;6238494;23;20196;-81
2024/01/14 01:25:51;;;;;;;10.10;9.80;;;-1.90;99.90;;;;;;6241489;23;20269;-81
2024/01/14 01:28:20;;;;;;;10.27;9.97;;;-2.00;99.90;;;;;;6248756;23;20203;-80
2024/01/14 01:30:47;;;;;;;10.10;9.80;;;-2.00;99.90;;;;;;6246854;22;20209;-81
2024/01/14 01:33:14;;;;;;;10.80;10.50;;;-2.00;99.90;;;;;;6245740;23;20202;-81
2024/01/14 01:35:42;;;;;;;10.30;10.00;;;-2.00;99.90;;;;;;6238880;23;20209;-81
2024/01/14 01:38:09;;;;;;;10.67;10.37;;;-2.00;99.90;;;;;;6238008;23;20203;-80
2024/01/14 01:40:37;;;;;;;11.00;10.70;;;-2.00;99.90;;;;;;6237958;22;20222;-81
2024/01/14 01:43:04;;;;;;;10.50;10.20;;;-2.00;99.90;;;;;;6237771;23;20189;-81
2024/01/14 01:45:33;;;;;;;10.60;10.30;;;-2.00;99.90;;;;;;6239771;23;20207;-80
2024/01/14 01:48:00;;;;;;;10.37;10.07;;;-2.10;99.90;;;;;;6247863;23;20195;-81
2024/01/14 01:50:28;;;;;;;10.50;10.20;;;-2.10;99.90;;;;;;6243704;22;20217;-81
2024/01/14 01:52:56;;;;;;;10.40;10.10;;;-2.10;99.90;;;;;;6236609;23;20229;-81
2024/01/14 01:55:24;;;;;;;10.40;10.10;;;-2.20;99.90;;;;;;6236321;23;20190;-81
2024/01/14 01:57:51;;;;;;;10.60;10.30;;;-2.10;99.90;;;;;;6235805;23;20212;-80
2024/01/14 02:00:20;;;;;;;10.53;10.23;;;-2.20;99.90;;;;;;6234048;22;20212;-81
2024/01/14 02:02:50;;;;;;;10.63;10.33;;;-2.20;99.90;;;;;;6234649;23;20187;-81
2024/01/14 02:05:19;;;;;;;10.50;10.20;;;-2.20;99.90;;;;;;6233573;23;20211;-80
2024/01/14 02:07:46;;;;;;;10.67;10.37;;;-2.20;99.90;;;;;;6232917;23;20195;-80
2024/01/14 02:10:14;;;;;;;10.80;10.50;;;-2.20;99.90;;;;;;6239097;22;20204;-79
2024/01/14 02:12:41;;;;;;;10.37;10.07;;;-2.20;99.90;;;;;;6239386;23;20200;-80
2024/01/14 02:15:09;;;;;;;10.83;10.53;;;-2.20;99.90;;;;;;6230364;23;20192;-80
2024/01/14 02:17:36;;;;;;;10.60;10.30;;;-2.20;99.90;;;;;;6230108;23;20222;-80
2024/01/14 02:20:07;;;;;;;10.47;10.17;;;-2.20;99.90;;;;;;6230285;22;20207;-80
2024/01/14 02:22:39;;;;;;;10.27;9.97;;;-2.20;99.90;;;;;;6230137;23;20187;-80
2024/01/14 02:25:09;;;;;;;10.60;10.30;;;-2.20;99.90;;;;;;6242291;23;20182;-80
2024/01/14 02:27:36;;;;;;;10.63;10.33;;;-2.20;99.90;;;;;;6245063;23;20224;-80
2024/01/14 02:30:06;;;;;;;10.30;10.00;;;-2.10;99.90;;;;;;6243323;22;20199;-80
2024/01/14 02:32:37;;;;;;;10.30;10.00;;;-2.20;99.90;;;;;;6242861;23;20179;-80
2024/01/14 02:35:05;;;;;;;10.70;10.40;;;-2.20;99.90;;;;;;6234431;23;20198;-80
2024/01/14 02:37:33;;;;;;;10.17;9.87;;;-2.20;99.90;;;;;;6231074;23;20196;-80
2024/01/14 02:40:00;;;;;;;10.60;10.30;;;-2.20;99.90;;;;;;6230826;22;20203;-80
2024/01/14 02:42:29;;;;;;;10.47;10.17;;;-2.20;99.90;;;;;;6233298;23;20195;-80
2024/01/14 02:44:56;;;;;;;10.17;9.87;;;-2.20;99.90;;;;;;6229316;23;20191;-80
2024/01/14 02:47:24;;;;;;;10.17;9.87;;;-2.20;99.90;;;;;;6231027;23;20199;-79
2024/01/14 02:49:51;;;;;;;10.67;10.37;;;-2.20;99.90;;;;;;6232117;22;20214;-80
2024/01/14 02:52:19;;;;;;;10.20;9.90;;;-2.30;99.90;;;;;;6240283;23;20206;-80
2024/01/14 02:54:46;;;;;;;10.57;10.27;;;-2.30;99.90;;;;;;6242699;23;20232;-80
2024/01/14 02:57:13;;;;;;;10.47;10.17;;;-2.30;99.90;;;;;;6243625;23;20195;-81
2024/01/14 02:59:42;;;;;;;10.43;10.13;;;-2.30;99.90;;;;;;6243201;22;20234;-80
2024/01/14 03:02:09;;;;;;;10.67;10.37;;;-2.20;99.90;;;;;;6236668;23;20201;-80
2024/01/14 03:04:36;;;;;;;10.60;10.30;;;-2.20;99.90;;;;;;6232162;23;20274;-81
2024/01/14 03:07:04;;;;;;;10.63;10.33;;;-2.20;99.90;;;;;;6233529;23;20216;-81
2024/01/14 03:09:31;;;;;;;10.80;10.50;;;-2.20;99.90;;;;;;6238060;22;20195;-80
2024/01/14 03:11:59;;;;;;;10.70;10.40;;;-2.20;99.90;;;;;;6238946;23;20216;-80
2024/01/14 03:14:26;;;;;;;10.47;10.17;;;-2.20;99.90;;;;;;6237235;23;20246;-81
2024/01/14 03:16:55;;;;;;;10.70;10.40;;;-2.20;99.90;;;;;;6231032;23;20225;-82
2024/01/14 03:19:22;;;;;;;10.57;10.27;;;-2.20;99.90;;;;;;6230633;22;20195;-82
2024/01/14 03:21:49;;;;;;;10.37;10.07;;;-2.20;99.90;;;;;;6229691;23;20218;-80
2024/01/14 03:24:16;;;;;;;10.70;10.40;;;-2.20;99.90;;;;;;6232332;23;20195;-79
2024/01/14 03:26:44;;;;;;;10.37;10.07;;;-2.20;99.90;;;;;;6242324;23;20323;-79
2024/01/14 03:29:11;;;;;;;10.47;10.17;;;-2.20;99.90;;;;;;6242522;23;20270;-79
2024/01/14 03:31:38;;;;;;;10.33;10.03;;;-2.10;99.90;;;;;;6243408;22;20217;-79
2024/01/14 03:34:07;;;;;;;10.40;10.10;;;-2.20;99.90;;;;;;6236887;23;20194;-80
2024/01/14 03:36:34;;;;;;;10.47;10.17;;;-2.20;99.90;;;;;;6232981;23;20193;-80
2024/01/14 03:39:03;;;;;;;10.13;9.83;;;-2.20;99.90;;;;;;6232618;23;20262;-80
2024/01/14 03:41:31;;;;;;;10.60;10.30;;;-2.20;99.90;;;;;;6235142;22;20254;-80
2024/01/14 03:43:58;;;;;;;10.50;10.20;;;-2.20;99.90;;;;;;6235333;23;20217;-80
2024/01/14 03:46:25;;;;;;;10.13;9.83;;;-2.30;99.90;;;;;;6234526;23;20230;-80
2024/01/14 03:48:53;;;;;;;10.50;10.20;;;-2.30;99.90;;;;;;6233574;23;20249;-80
2024/01/14 03:51:21;;;;;;;10.30;10.00;;;-2.30;99.90;;;;;;6233457;22;20208;-80
2024/01/14 03:53:49;;;;;;;10.10;9.80;;;-2.30;99.90;;;;;;6237445;23;20195;-80
2024/01/14 03:56:16;;;;;;;10.13;9.83;;;-2.20;99.90;;;;;;6233425;23;20192;-80
2024/01/14 03:58:43;;;;;;;10.70;10.40;;;-2.20;99.90;;;;;;6233272;23;20207;-81
2024/01/14 04:01:17;;;;;;;10.10;9.80;;;-2.30;99.90;;;;;;6241245;22;20207;-80
2024/01/14 04:03:45;;;;;;;10.07;9.77;;;-2.30;99.90;;;;;;6240798;23;20197;-80
2024/01/14 04:06:13;;;;;;;9.77;9.47;;;-2.30;99.90;;;;;;6236201;23;20202;-81
2024/01/14 04:08:42;;;;;;;10.50;10.20;;;-2.30;99.90;;;;;;6238046;23;20216;-80
2024/01/14 04:11:09;;;;;;;10.27;9.97;;;-2.20;99.90;;;;;;6238053;22;20220;-80
2024/01/14 04:13:37;;;;;;;10.17;9.87;;;-2.20;99.90;;;;;;6236880;23;20207;-80
2024/01/14 04:16:04;;;;;;;10.47;10.17;;;-2.20;99.90;;;;;;6234573;23;20190;-81
2024/01/14 04:18:32;;;;;;;10.30;10.00;;;-2.20;99.90;;;;;;6237427;23;20207;-79
2024/01/14 04:20:59;;;;;;;10.20;9.90;;;-2.20;99.90;;;;;;6235381;22;20198;-80
2024/01/14 04:23:26;;;;;;;10.20;9.90;;;-2.20;99.90;;;;;;6232351;23;20202;-81
2024/01/14 04:25:55;;;;;;;10.40;10.10;;;-2.10;99.90;;;;;;6233043;23;20222;-80
2024/01/14 04:28:23;;;;;;;10.50;10.20;;;-2.10;99.90;;;;;;6233228;23;20218;-81
2024/01/14 04:30:52;;;;;;;10.50;10.20;;;-2.10;99.90;;;;;;6232090;22;20195;-80
2024/01/14 04:33:19;;;;;;;10.67;10.37;;;-2.10;99.90;;;;;;6232419;23;21087;-80
2024/01/14 04:35:46;;;;;;;10.00;9.70;;;-2.10;99.90;;;;;;6231672;23;20205;-80
2024/01/14 04:38:14;;;;;;;10.43;10.13;;;-2.10;99.90;;;;;;6232169;23;20231;-80
2024/01/14 04:40:41;;;;;;;10.33;10.03;;;-2.10;99.90;;;;;;6232217;22;20261;-80
2024/01/14 04:43:11;;;;;;;10.50;10.20;;;-2.10;99.90;;;;;;6231190;23;20278;-80
2024/01/14 04:45:38;;;;;;;10.67;10.37;;;-2.10;99.90;;;;;;6231505;23;20207;-80
2024/01/14 04:48:06;;;;;;;10.47;10.17;;;-2.10;99.90;;;;;;6232962;23;20244;-80
2024/01/14 04:50:33;;;;;;;10.70;10.40;;;-2.10;99.90;;;;;;6230441;22;20212;-79
2024/01/14 04:53:00;;;;;;;10.33;10.03;;;-2.10;99.90;;;;;;6230071;23;20190;-80
2024/01/14 04:55:28;;;;;;;10.50;10.20;;;-2.10;99.90;;;;;;6229484;23;20199;-80
2024/01/14 04:57:55;;;;;;;10.63;10.33;;;-2.20;99.90;;;;;;6229917;23;20243;-80
2024/01/14 05:00:23;;;;;;;10.23;9.93;;;-2.20;99.90;;;;;;6229440;22;20257;-81
2024/01/14 05:02:51;;;;;;;10.33;10.03;;;-2.20;99.90;;;;;;6230360;23;20197;-80
2024/01/14 05:05:18;;;;;;;9.83;9.53;;;-2.20;99.90;;;;;;6231651;23;20193;-80
2024/01/14 05:07:45;;;;;;;10.17;9.87;;;-2.10;99.90;;;;;;6235401;23;20203;-79
2024/01/14 05:10:13;;;;;;;10.53;10.23;;;-2.10;99.90;;;;;;6229726;22;20266;-80
2024/01/14 05:12:40;;;;;;;10.83;10.53;;;-2.10;99.90;;;;;;6230133;23;20198;-80
2024/01/14 05:15:09;;;;;;;10.23;9.93;;;-2.20;99.90;;;;;;6230509;23;20206;-80
2024/01/14 05:17:37;;;;;;;10.23;9.93;;;-2.20;99.90;;;;;;6229245;23;20230;-80
2024/01/14 05:20:08;;;;;;;10.30;10.00;;;-2.10;99.90;;;;;;6229893;22;20209;-80
2024/01/14 05:22:35;;;;;;;9.97;9.67;;;-2.10;99.90;;;;;;6229922;23;20214;-80
2024/01/14 05:25:02;;;;;;;10.17;9.87;;;-2.00;99.90;;;;;;6230382;23;20277;-80
2024/01/14 05:27:29;;;;;;;10.00;9.70;;;-2.00;99.90;;;;;;6229724;23;20218;-80
2024/01/14 05:29:57;;;;;;;9.70;9.40;;;-1.90;99.90;;;;;;6229326;22;20731;-80
2024/01/14 05:32:24;;;;;;;10.23;9.93;;;-1.90;99.90;;;;;;6230492;23;20203;-80
2024/01/14 05:34:52;;;;;;;10.00;9.70;;;-1.90;99.90;;;;;;6229840;23;20222;-81
2024/01/14 05:37:20;;;;;;;10.37;10.07;;;-1.90;99.90;;;;;;6234672;23;20197;-81
2024/01/14 05:39:47;;;;;;;10.43;10.13;;;-1.90;99.90;;;;;;6233587;22;20196;-81
2024/01/14 05:42:15;;;;;;;10.20;9.90;;;-1.90;99.90;;;;;;6230738;23;20191;-80
2024/01/14 05:44:42;;;;;;;10.80;10.50;;;-2.00;99.90;;;;;;6229200;23;20210;-81
2024/01/14 05:47:09;;;;;;;10.43;10.13;;;-2.00;99.90;;;;;;6229332;23;20209;-81
2024/01/14 05:52:29;;;;;;;10.90;10.60;;;-2.10;99.90;;;;;;6223543;22;20237;-87
2024/01/14 05:55:14;;;;;;;10.20;9.90;;;-2.10;99.90;;;;;;6227775;23;20265;-84
2024/01/14 05:57:46;;;;;;;10.30;10.00;;;-2.20;99.90;;;;;;6241118;22;20192;-85
2024/01/14 06:00:22;;;;;;;10.17;9.87;;;-2.20;99.90;;;;;;6247591;22;20203;-85
2024/01/14 06:03:08;;;;;;;10.10;9.80;;;-2.20;99.90;;;;;;6242835;22;20200;-87
2024/01/14 06:05:43;;;;;;;10.10;9.80;;;-2.30;99.90;;;;;;6231159;23;20253;-87
2024/01/14 06:08:31;;;;;;;10.10;9.80;;;-2.30;99.90;;;;;;6249739;22;20193;-87
2024/01/14 06:11:32;;;;;;;10.13;9.83;;;-2.40;99.90;;;;;;6229709;22;20213;-87
2024/01/14 06:14:10;;;;;;;9.53;9.23;;;-2.40;99.90;;;;;;6232647;23;20205;-85
2024/01/14 06:16:50;;;;;;;10.10;9.80;;;-2.40;99.90;;;;;;6231071;23;20202;-84
2024/01/14 06:19:28;;;;;;;9.73;9.43;;;-2.30;99.90;;;;;;6228095;23;20544;-85
2024/01/14 06:22:22;;;;;;;9.67;9.37;;;-2.30;99.90;;;;;;6227761;22;20207;-85
2024/01/14 06:24:55;;;;;;;10.10;9.80;;;-2.30;99.90;;;;;;6227544;23;20201;-84
2024/01/14 06:27:29;;;;;;;9.57;9.27;;;-2.30;99.90;;;;;;6229539;23;20218;-85
2024/01/14 06:30:13;;;;;;;9.70;9.40;;;-2.30;99.90;;;;;;6227640;22;20203;-85
2024/01/14 06:32:56;;;;;;;;;;;;;;;;;;;;;
2024/01/14 06:35:28;;;;;;;10.00;9.70;;;-2.20;99.90;;;;;;6230646;23;20201;-84
2024/01/14 06:38:07;;;;;;;9.90;9.60;;;-2.20;99.90;;;;;;6249353;22;20179;-85
2024/01/14 06:41:31;;;;;;;9.80;9.50;;;-2.20;99.90;;;;;;6247552;22;20257;-84
2024/01/14 06:44:09;;;;;;;10.00;9.70;;;-2.20;99.90;;;;;;6228357;23;20201;-85
2024/01/14 06:47:03;;;;;;;9.77;9.47;;;-2.30;99.90;;;;;;6228120;23;20202;-85
2024/01/14 06:50:08;;;;;;;9.80;9.50;;;-2.30;99.90;;;;;;6227824;23;20201;-85
2024/01/14 06:52:46;;;;;;;9.63;9.33;;;-2.30;99.90;;;;;;6045229;23;20223;-85
2024/01/14 06:55:26;;;;;;;9.50;9.20;;;-2.30;99.90;;;;;;6045639;23;20200;-85
2024/01/14 06:58:26;;;;;;;9.53;9.23;;;-2.30;99.90;;;;;;6046393;23;20191;-85
2024/01/14 07:01:04;;;;;;;9.90;9.60;;;-2.40;99.90;;;;;;6045876;23;20209;-85
2024/01/14 07:03:44;;;;;;;9.73;9.43;;;-2.40;99.90;;;;;;6046483;23;20241;-85
2024/01/14 07:06:37;;;;;;;9.50;9.20;;;-2.40;99.90;;;;;;6045652;23;20946;-85
2024/01/14 07:09:26;;;;;;;;;;;;;;;;;;;;;
2024/01/14 07:12:13;;;;;;;9.70;9.40;;;-2.30;99.90;;;;;;6059985;23;20195;-85
2024/01/14 07:14:55;;;;;;;9.70;9.40;;;-2.20;99.90;;;;;;6047740;23;20197;-85
2024/01/14 07:17:36;;;;;;;9.67;9.37;;;-2.20;99.90;;;;;;6045572;23;20195;-86
2024/01/14 07:20:16;;;;;;;9.40;9.10;;;-2.20;99.90;;;;;;6046221;23;20211;-85
2024/01/14 07:22:56;;;;;;;10.00;9.70;;;-2.10;99.90;;;;;;6045582;23;20200;-85
2024/01/14 07:25:33;;;;;;;9.43;9.13;;;-2.10;99.90;;;;;;6046322;23;20575;-86
2024/01/14 07:28:20;;;;;;;9.53;9.23;;;-2.20;99.90;;;;;;6046171;23;20227;-85
2024/01/14 07:30:57;;;;;;;9.30;9.00;;;-2.20;99.90;;;;;;6065078;23;20207;-85
2024/01/14 07:33:45;;;;;;;9.67;9.37;;;-2.20;99.90;;;;;;6066252;23;20242;-86
2024/01/14 07:36:23;;;;;;;9.67;9.37;;;-2.20;99.90;;;;;;6066663;23;20260;-85
2024/01/14 07:38:58;;;;;;;9.70;9.40;;;-2.20;99.90;;;;;;6066692;23;20200;-85
2024/01/14 07:41:38;;;;;;;8.73;8.53;;;-2.20;99.90;;;;;;6067109;23;20189;-87
2024/01/14 07:44:22;;;;;;;8.90;8.70;;;-2.20;99.90;;;;;;6066719;23;20218;-87
2024/01/14 07:46:54;;;;;;;9.47;9.17;;;-2.20;99.90;;;;;;6067450;23;20725;-87
2024/01/14 07:49:28;;;;;;;9.33;9.03;;;-2.30;99.90;;;;;;6066977;23;20231;-87
2024/01/14 07:52:18;;;;;;;9.47;9.17;;;-2.30;99.90;;;;;;6214446;22;20189;-86
2024/01/14 07:57:59;;;;;;;8.90;8.70;;;-2.30;99.90;;;;;;6243792;22;20203;-86
2024/01/14 08:00:31;;;;;;;9.30;9.00;;;-2.30;99.90;;;;;;6249176;22;20183;-87
2024/01/14 08:03:05;;;;;;;9.27;8.97;;;-2.30;99.90;;;;;;6249501;22;20178;-87
2024/01/14 08:05:52;;;;;;;9.30;9.00;;;-2.30;99.90;;;;;;6238669;22;20193;-86
2024/01/14 08:08:36;;;;;;;9.50;9.20;;;-2.20;99.90;;;;;;6236381;23;20209;-87
2024/01/14 08:11:14;;;;;;;9.23;8.93;;;-2.30;99.90;;;;;;6229802;22;20203;-87
2024/01/14 08:13:47;;;;;;;9.77;9.47;;;-2.20;99.90;;;;;;6233211;23;20203;-86
2024/01/14 08:16:23;;;;;;;8.97;8.73;;;-2.20;99.90;;;;;;6230686;23;20195;-85
2024/01/14 08:19:07;;;;;;;9.37;9.07;;;-2.20;99.90;;;;;;6228355;23;20254;-86
2024/01/14 08:24:54;;;;;;;;;;;;;;;;;;;;;
2024/01/14 08:27:30;;;;;;;9.40;9.10;;;-2.20;99.90;;;;;;6231655;23;20280;-87
2024/01/14 08:30:12;;;;;;;9.57;9.27;;;-2.20;99.90;;;;;;6230306;22;20203;-86
2024/01/14 08:32:44;;;;;;;9.27;8.97;;;-2.20;99.90;;;;;;6229932;23;20211;-87
2024/01/14 08:35:17;;;;;;;9.30;9.00;;;-2.20;99.90;;;;;;6228926;23;20191;-87
2024/01/14 08:38:04;;;;;;;;;;;;;;;;;;;;;
2024/01/14 08:40:42;;;;;;;9.57;9.27;;;-2.20;99.90;;;;;;6229809;22;20235;-85
2024/01/14 08:43:46;;;;;;;9.50;9.20;;;-2.20;99.90;;;;;;6229988;23;20194;-86
2024/01/14 08:46:29;;;;;;;9.30;9.00;;;-2.20;99.90;;;;;;6231182;23;20206;-87
2024/01/14 08:49:10;;;;;;;9.67;9.37;;;-2.20;99.90;;;;;;6230481;23;20195;-87
2024/01/14 08:51:48;;;;;;;9.23;8.93;;;-2.20;99.90;;;;;;6230246;22;20242;-87
2024/01/14 08:54:36;;;;;;;;;;;;;;;;;;;;;
2024/01/14 08:57:15;;;;;;;9.33;9.03;;;-2.20;99.90;;;;;;6228313;23;20229;-86
2024/01/14 08:59:58;;;;;;;;;;;;;;;;;;;;;
2024/01/14 09:02:32;;;;;;;8.87;8.67;;;-2.20;99.90;;;;;;6228425;23;20203;-86
2024/01/14 09:05:08;;;;;;;9.47;9.17;;;-2.10;99.90;;;;;;6228651;23;20239;-86
2024/01/14 09:07:39;;;;;;;9.40;9.10;;;-2.00;99.90;;;;;;6229890;23;20239;-85
2024/01/14 09:10:24;;;;;;;9.20;8.90;;;-2.00;99.90;;;;;;6245354;22;20178;-87
2024/01/14 09:13:07;;;;;;;9.83;9.53;;;-2.00;99.90;;;;;;6249131;22;20192;-86
2024/01/14 09:15:42;;;;;;;9.17;8.87;;;-2.00;99.90;;;;;;6231378;23;20218;-86
2024/01/14 09:18:27;;;;;;;9.90;9.60;;;-2.00;99.90;;;;;;6229406;23;20284;-86
2024/01/14 09:21:03;;;;;;;9.20;8.90;;;-1.90;99.90;;;;;;6228297;22;20200;-86
2024/01/14 09:23:41;;;;;;;9.33;9.03;;;-1.90;99.90;;;;;;6228499;23;20271;-85
2024/01/14 09:26:42;;;;;;;9.80;9.50;;;-1.90;99.90;;;;;;6228362;23;20200;-86
2024/01/14 09:29:30;;;;;;;9.27;8.97;;;-1.90;99.90;;;;;;6227782;23;20203;-86
2024/01/14 09:32:25;;;;;;;8.80;8.60;;;-1.90;99.90;;;;;;6228322;22;20199;-85
2024/01/14 09:34:58;;;;;;;9.03;8.80;;;-1.80;99.90;;;;;;6228542;23;20209;-85
2024/01/14 09:37:53;;;;;;;;;;;;;;;;;;;;;
2024/01/14 09:40:28;;;;;;;9.40;9.10;;;-1.80;99.90;;;;;;6236770;22;20185;-86
2024/01/14 09:43:08;;;;;;;9.53;9.23;;;-1.80;99.90;;;;;;6228981;23;20305;-86
2024/01/14 09:46:11;;;;;;;;;;;;;;;;;;;;;
2024/01/14 09:49:03;;;;;;;;;;;;;;;;;;;;;
2024/01/14 09:51:50;;;;;;;8.93;8.73;;;-1.70;99.90;;;;;;6124573;23;20212;-87
2024/01/14 09:54:27;;;;;;;9.40;9.10;;;-1.70;99.90;;;;;;6078125;23;20202;-86
2024/01/14 09:57:06;;;;;;;9.17;8.87;;;-1.60;99.90;;;;;;6078057;23;20204;-86
2024/01/14 10:00:11;;;;;;;;;;;;;;;;;;;;;
2024/01/14 10:02:59;;;;;;;9.17;8.87;;;-1.60;99.90;;;;;;6080099;23;20253;-85
2024/01/14 10:05:49;;;;;;;9.13;8.83;;;-1.60;99.90;;;;;;6076345;23;20197;-85
2024/01/14 10:08:27;;;;;;;9.17;8.87;;;-1.60;99.90;;;;;;6068337;23;20213;-86
2024/01/14 10:11:06;;;;;;;;;;;;;;;;;;;;;
2024/01/14 10:14:05;;;;;;;9.20;8.90;;;-1.50;99.90;;;;;;6077399;23;20201;-86
2024/01/14 10:16:46;;;;;;;9.27;8.97;;;-1.60;99.90;;;;;;6076176;23;20261;-86
2024/01/14 10:19:46;;;;;;;;;;;;;;;;;;;;;
2024/01/14 10:22:41;;;;;;;;;;;;;;;;;;;;;
2024/01/14 10:25:20;;;;;;;8.93;8.73;;;-1.50;99.90;;;;;;6079858;23;20201;-88
2024/01/14 10:27:55;;;;;;;8.90;8.70;;;-1.40;99.90;;;;;;6077201;23;20229;-86
2024/01/14 10:30:51;;;;;;;8.60;8.40;;;-1.40;99.90;;;;;;6080103;23;20228;-87
2024/01/14 10:33:32;;;;;;;9.10;8.80;;;-1.40;99.90;;;;;;6084424;23;20272;-86
2024/01/14 10:36:13;;;;;;;9.63;9.33;;;-1.50;99.90;;;;;;6082293;23;20204;-87
2024/01/14 10:38:50;;;;;;;9.30;9.00;;;-1.50;99.90;;;;;;6089582;23;20202;-87
2024/01/14 10:41:32;;;;;;;8.73;8.53;;;-1.40;99.90;;;;;;6085737;23;20204;-85
2024/01/14 10:44:18;;;;;;;;;;;;;;;;;;;;;
2024/01/14 10:47:06;;;;;;;8.93;8.73;;;-1.40;99.90;;;;;;6080951;23;20202;-87
2024/01/14 10:49:46;;;;;;;9.33;9.03;;;-1.30;99.90;;;;;;6078275;23;20200;-86
2024/01/14 10:52:19;;;;;;;9.00;8.70;;;-1.20;99.90;;;;;;6221110;22;20208;-86
2024/01/14 10:54:55;;;;;;;9.03;8.73;;;-1.20;99.90;;;;;;6237508;23;20188;-87
2024/01/14 10:57:44;;;;;;;8.60;8.40;;;-1.20;99.90;;;;;;6249068;22;20186;-86
2024/01/14 11:00:53;;;;;;;8.50;8.30;;;-1.20;99.90;;;;;;6249201;22;20209;-87
2024/01/14 11:03:35;;;;;;;8.50;8.30;;;-1.10;99.90;;;;;;6245979;22;20253;-86
2024/01/14 11:06:22;;;;;;;;;;;;;;;;;;;;;
2024/01/14 11:09:05;;;;;;;8.70;8.50;;;-1.00;99.90;;;;;;6234130;23;20227;-87
2024/01/14 11:12:15;;;;;;;;;;;;;;;;;;;;;
2024/01/14 11:15:25;;;;;;;;;;;;;;;;;;;;;
2024/01/14 11:21:33;;;;;;;8.80;8.60;;;-0.90;99.90;;;;;;6233504;22;20201;-86
2024/01/14 11:24:17;;;;;;;9.20;8.90;;;-1.00;99.90;;;;;;6234683;23;20202;-87
2024/01/14 11:26:51;;;;;;;8.90;8.67;;;-0.90;99.90;;;;;;6231617;23;20305;-86
2024/01/14 11:29:36;;;;;;;8.67;8.47;;;-0.90;99.90;;;;;;6232797;23;20205;-87
2024/01/14 11:32:16;;;;;;;8.73;8.53;;;-0.90;99.90;;;;;;6241982;22;20241;-87
2024/01/14 11:35:10;;;;;;;8.57;8.37;;;-0.90;99.90;;;;;;6235571;23;20247;-88
2024/01/14 11:37:52;;;;;;;8.80;8.60;;;-0.90;99.90;;;;;;6235980;23;20198;-86
2024/01/14 11:40:54;;;;;;;8.87;8.67;;;-0.90;99.90;;;;;;6238592;22;20198;-86
2024/01/14 11:44:14;;;;;;;8.87;8.67;;;-0.80;99.90;;;;;;6242519;22;20185;-86
2024/01/14 11:49:56;;;;;;;8.73;8.53;;;-0.70;99.90;;;;;;6231947;23;20289;-87
2024/01/14 11:52:32;;;;;;;8.63;8.43;;;-0.70;99.90;;;;;;6234599;22;20309;-88
2024/01/14 11:55:04;;;;;;;9.10;8.80;;;-0.60;99.90;;;;;;6237061;23;20220;-88
2024/01/14 11:57:44;;;;;;;8.63;8.43;;;-0.50;99.90;;;;;;6236978;23;20222;-88
2024/01/14 12:00:32;;;;;;;9.17;8.87;;;-0.40;99.90;;;;;;6243321;23;20186;-88
2024/01/14 12:03:10;;;;;;;9.33;9.03;;;-0.20;99.90;;;;;;6215233;23;20256;-87
2024/01/14 12:05:41;;;;;;;9.03;8.77;;;-0.20;99.90;;;;;;6204672;23;20209;-88
2024/01/14 12:08:21;;;;;;;8.80;8.60;;;-0.10;99.90;;;;;;6204234;23;20294;-88
2024/01/14 12:11:07;;;;;;;8.87;8.67;;;-0.10;99.90;;;;;;6207250;23;20266;-88
2024/01/14 12:13:52;;;;;;;8.53;8.33;;;0.10;99.90;;;;;;6207767;23;20194;-88
2024/01/14 12:16:23;;;;;;;8.90;8.70;;;0.20;99.90;;;;;;6206871;23;20192;-88
2024/01/14 12:18:56;;;;;;;8.80;8.60;;;0.40;99.90;;;;;;6203599;23;20199;-88
2024/01/14 12:21:50;;;;;;;8.97;8.77;;;0.50;99.90;;;;;;6202459;23;20212;-88
2024/01/14 12:24:30;;;;;;;9.07;8.87;;;0.60;99.90;;;;;;6202152;23;20203;-88
2024/01/14 12:27:10;;;;;;;8.60;8.40;;;0.60;99.90;;;;;;6203249;23;20203;-88
2024/01/14 12:29:57;;;;;;;8.93;8.73;;;0.60;99.90;;;;;;6201869;23;20263;-88
2024/01/14 12:32:41;;;;;;;8.90;8.70;;;0.60;99.90;;;;;;6203153;23;20203;-88
2024/01/14 12:35:18;;;;;;;8.50;8.30;;;0.60;99.90;;;;;;6202501;23;20188;-88
2024/01/14 12:38:16;;;;;;;8.47;8.27;;;0.60;99.90;;;;;;6203349;23;20251;-88
2024/01/14 12:43:58;;;;;;;9.10;8.80;;;0.70;99.90;;;;;;6203972;23;20213;-88
2024/01/14 12:46:46;;;;;;;;;;;;;;;;;;;;;
2024/01/14 12:49:24;;;;;;;8.40;8.20;;;0.40;99.90;;;;;;6201965;23;20256;-88
2024/01/14 12:52:08;;;;;;;8.37;8.17;;;0.40;99.90;;;;;;6201842;23;20203;-88
2024/01/14 12:54:38;;;;;;;8.47;8.27;;;0.40;99.90;;;;;;6202401;23;20191;-88
2024/01/14 12:57:30;;;;;;;8.27;8.07;;;0.50;99.90;;;;;;6203187;23;20239;-88
2024/01/14 13:00:11;;;;;;;8.47;8.27;;;0.60;99.90;;;;;;6202233;23;20203;-88
2024/01/14 13:02:50;;;;;;;8.37;8.17;;;0.70;99.90;;;;;;6202844;23;20690;-88
2024/01/14 13:05:25;;;;;;;8.70;8.50;;;0.60;99.90;;;;;;6202177;23;20275;-87
2024/01/14 13:08:08;;;;;;;8.70;8.50;;;0.60;99.90;;;;;;6202290;23;20199;-87
2024/01/14 13:10:44;;;;;;;8.80;8.60;;;0.50;99.90;;;;;;6201214;23;20206;-87
2024/01/14 13:13:18;;;;;;;8.50;8.30;;;0.60;99.90;;;;;;6202519;23;20202;-88
2024/01/14 13:15:54;;;;;;;8.80;8.60;;;0.50;99.90;;;;;;6202535;23;20195;-88
2024/01/14 13:18:29;;;;;;;8.40;8.20;;;0.40;99.90;;;;;;6211718;23;20171;-88
2024/01/14 13:20:58;;;;;;;8.43;8.23;;;0.50;99.90;;;;;;6203219;23;20262;-88
2024/01/14 13:23:30;;;;;;;8.00;7.80;;;0.60;99.90;;;;;;6201555;23;20207;-88
2024/01/14 13:26:00;;;;;;;8.57;8.37;;;0.70;99.90;;;;;;6201901;23;20188;-88
2024/01/14 13:28:43;;;;;;;8.50;8.30;;;0.70;99.90;;;;;;6201753;23;20196;-88
2024/01/14 13:31:37;;;;;;;8.73;8.53;;;0.60;99.90;;;;;;6201877;23;20199;-88
2024/01/14 13:34:11;;;;;;;8.47;8.27;;;0.70;99.90;;;;;;6201517;23;20277;-88
2024/01/14 13:36:49;;;;;;;8.63;8.43;;;0.70;99.90;;;;;;6203732;23;20262;-88
2024/01/14 13:39:20;;;;;;;8.70;8.50;;;0.80;99.90;;;;;;6203104;23;20202;-88
2024/01/14 13:41:52;;;;;;;8.70;8.50;;;0.80;99.90;;;;;;6202284;23;20208;-88
2024/01/14 13:44:25;;;;;;;8.73;8.53;;;0.80;99.90;;;;;;6202170;23;20196;-88
2024/01/14 13:46:57;;;;;;;8.90;8.70;;;0.80;99.90;;;;;;6201788;23;20210;-88
2024/01/14 13:49:34;;;;;;;8.53;8.33;;;0.90;99.90;;;;;;6201172;23;20527;-88
2024/01/14 13:52:05;;;;;;;8.90;8.70;;;0.80;99.90;;;;;;6201468;23;20246;-88
2024/01/14 13:54:36;;;;;;;8.43;8.23;;;0.80;99.90;;;;;;6202287;23;20203;-88
2024/01/14 13:57:10;;;;;;;8.57;8.37;;;0.80;99.90;;;;;;6202257;23;20211;-88
2024/01/14 13:59:46;;;;;;;8.60;8.40;;;0.80;99.90;;;;;;6201290;23;20200;-88
2024/01/14 14:02:19;;;;;;;8.80;8.60;;;0.80;99.90;;;;;;6201973;23;20895;-88
2024/01/14 14:04:51;;;;;;;8.53;8.33;;;0.80;99.90;;;;;;6203058;23;20196;-88